sensor_id;sensor_type;location;lat;lon;timestamp;P1;durP1;ratioP1;P2;durP2;ratioP2
71856;SDS011;59712;46.980;28.882;2022-08-01T00:01:14;26.30;;;18.30;;
71856;SDS011;59712;46.980;28.882;2022-08-01T00:03:42;25.85;;;18.48;;
71856;SDS011;59712;46.980;28.882;2022-08-01T00:06:09;27.05;;;17.23;;
71856;SDS011;59712;46.980;28.882;2022-08-01T00:08:36;26.08;;;18.35;;
71856;SDS011;59712;46.980;28.882;2022-08-01T00:11:04;22.15;;;15.88;;
71856;SDS011;59712;46.980;28.882;2022-08-01T00:13:31;21.80;;;15.38;;
71856;SDS011;59712;46.980;28.882;2022-08-01T00:15:58;22.23;;;15.98;;
71856;SDS011;59712;46.980;28.882;2022-08-01T00:18:25;26.02;;;16.10;;
71856;SDS011;59712;46.980;28.882;2022-08-01T00:20:52;23.02;;;17.02;;
71856;SDS011;59712;46.980;28.882;2022-08-01T00:23:19;20.50;;;14.63;;
71856;SDS011;59712;46.980;28.882;2022-08-01T00:25:47;24.98;;;17.38;;
71856;SDS011;59712;46.980;28.882;2022-08-01T00:28:17;27.35;;;19.25;;
71856;SDS011;59712;46.980;28.882;2022-08-01T00:30:49;23.98;;;17.67;;
71856;SDS011;59712;46.980;28.882;2022-08-01T00:33:16;26.08;;;18.42;;
71856;SDS011;59712;46.980;28.882;2022-08-01T00:35:44;26.63;;;18.92;;
71856;SDS011;59712;46.980;28.882;2022-08-01T00:38:11;22.25;;;17.25;;
71856;SDS011;59712;46.980;28.882;2022-08-01T00:40:39;24.48;;;16.92;;
71856;SDS011;59712;46.980;28.882;2022-08-01T00:43:06;24.92;;;16.48;;
71856;SDS011;59712;46.980;28.882;2022-08-01T00:45:34;23.00;;;16.33;;
71856;SDS011;59712;46.980;28.882;2022-08-01T00:48:01;22.17;;;16.08;;
71856;SDS011;59712;46.980;28.882;2022-08-01T00:50:28;23.35;;;15.15;;
71856;SDS011;59712;46.980;28.882;2022-08-01T00:52:55;24.27;;;16.23;;
71856;SDS011;59712;46.980;28.882;2022-08-01T00:55:26;19.77;;;15.38;;
71856;SDS011;59712;46.980;28.882;2022-08-01T00:57:54;19.95;;;15.30;;
71856;SDS011;59712;46.980;28.882;2022-08-01T01:00:32;21.20;;;16.67;;
71856;SDS011;59712;46.980;28.882;2022-08-01T01:03:20;24.98;;;17.08;;
71856;SDS011;59712;46.980;28.882;2022-08-01T01:08:57;24.20;;;17.35;;
71856;SDS011;59712;46.980;28.882;2022-08-01T01:11:47;22.83;;;17.48;;
71856;SDS011;59712;46.980;28.882;2022-08-01T01:17:51;21.70;;;16.63;;
71856;SDS011;59712;46.980;28.882;2022-08-01T01:20:24;22.42;;;16.95;;
71856;SDS011;59712;46.980;28.882;2022-08-01T01:25:32;26.17;;;17.55;;
71856;SDS011;59712;46.980;28.882;2022-08-01T01:28:11;25.23;;;17.45;;
71856;SDS011;59712;46.980;28.882;2022-08-01T01:30:53;25.85;;;18.02;;
71856;SDS011;59712;46.980;28.882;2022-08-01T01:33:25;24.80;;;17.25;;
71856;SDS011;59712;46.980;28.882;2022-08-01T01:35:57;22.90;;;17.27;;
71856;SDS011;59712;46.980;28.882;2022-08-01T01:38:29;26.55;;;16.83;;
71856;SDS011;59712;46.980;28.882;2022-08-01T01:41:04;25.73;;;17.20;;
71856;SDS011;59712;46.980;28.882;2022-08-01T01:43:33;23.38;;;17.05;;
71856;SDS011;59712;46.980;28.882;2022-08-01T01:46:03;23.55;;;16.50;;
71856;SDS011;59712;46.980;28.882;2022-08-01T01:51:00;20.67;;;14.65;;
71856;SDS011;59712;46.980;28.882;2022-08-01T01:53:28;26.58;;;17.70;;
71856;SDS011;59712;46.980;28.882;2022-08-01T01:55:58;25.20;;;17.73;;
71856;SDS011;59712;46.980;28.882;2022-08-01T01:58:27;22.33;;;15.70;;
71856;SDS011;59712;46.980;28.882;2022-08-01T02:00:56;22.83;;;15.55;;
71856;SDS011;59712;46.980;28.882;2022-08-01T02:03:29;18.95;;;14.23;;
71856;SDS011;59712;46.980;28.882;2022-08-01T02:05:58;22.88;;;14.90;;
71856;SDS011;59712;46.980;28.882;2022-08-01T02:08:27;20.00;;;15.45;;
71856;SDS011;59712;46.980;28.882;2022-08-01T02:10:58;19.90;;;14.82;;
71856;SDS011;59712;46.980;28.882;2022-08-01T02:14:04;18.48;;;13.10;;
71856;SDS011;59712;46.980;28.882;2022-08-01T02:16:35;17.58;;;12.38;;
71856;SDS011;59712;46.980;28.882;2022-08-01T02:19:03;21.15;;;13.60;;
71856;SDS011;59712;46.980;28.882;2022-08-01T02:21:38;18.67;;;13.57;;
71856;SDS011;59712;46.980;28.882;2022-08-01T02:26:42;22.75;;;16.02;;
71856;SDS011;59712;46.980;28.882;2022-08-01T02:29:22;20.50;;;15.52;;
71856;SDS011;59712;46.980;28.882;2022-08-01T02:31:54;20.52;;;15.00;;
71856;SDS011;59712;46.980;28.882;2022-08-01T02:34:22;18.77;;;13.88;;
71856;SDS011;59712;46.980;28.882;2022-08-01T02:36:52;16.85;;;11.23;;
71856;SDS011;59712;46.980;28.882;2022-08-01T02:39:23;16.27;;;12.57;;
71856;SDS011;59712;46.980;28.882;2022-08-01T02:41:55;16.17;;;11.90;;
71856;SDS011;59712;46.980;28.882;2022-08-01T02:44:30;13.85;;;11.00;;
71856;SDS011;59712;46.980;28.882;2022-08-01T02:47:00;16.38;;;11.15;;
71856;SDS011;59712;46.980;28.882;2022-08-01T02:49:34;15.05;;;10.88;;
71856;SDS011;59712;46.980;28.882;2022-08-01T02:52:06;14.18;;;10.40;;
71856;SDS011;59712;46.980;28.882;2022-08-01T02:54:36;13.02;;;9.50;;
71856;SDS011;59712;46.980;28.882;2022-08-01T02:57:05;18.20;;;12.77;;
71856;SDS011;59712;46.980;28.882;2022-08-01T02:59:39;16.02;;;12.05;;
71856;SDS011;59712;46.980;28.882;2022-08-01T03:02:08;18.20;;;11.52;;
71856;SDS011;59712;46.980;28.882;2022-08-01T03:04:37;18.23;;;11.20;;
71856;SDS011;59712;46.980;28.882;2022-08-01T03:07:07;15.65;;;12.45;;
71856;SDS011;59712;46.980;28.882;2022-08-01T03:09:37;12.57;;;10.30;;
71856;SDS011;59712;46.980;28.882;2022-08-01T03:12:09;14.02;;;9.63;;
71856;SDS011;59712;46.980;28.882;2022-08-01T03:14:40;12.13;;;8.95;;
71856;SDS011;59712;46.980;28.882;2022-08-01T03:17:10;11.75;;;8.40;;
71856;SDS011;59712;46.980;28.882;2022-08-01T03:19:38;12.32;;;9.68;;
71856;SDS011;59712;46.980;28.882;2022-08-01T03:22:07;12.10;;;9.23;;
71856;SDS011;59712;46.980;28.882;2022-08-01T03:24:37;10.63;;;9.27;;
71856;SDS011;59712;46.980;28.882;2022-08-01T03:27:07;11.73;;;8.70;;
71856;SDS011;59712;46.980;28.882;2022-08-01T03:29:37;12.25;;;8.27;;
71856;SDS011;59712;46.980;28.882;2022-08-01T03:32:06;11.32;;;8.23;;
71856;SDS011;59712;46.980;28.882;2022-08-01T03:34:35;14.73;;;8.93;;
71856;SDS011;59712;46.980;28.882;2022-08-01T03:37:03;13.10;;;8.52;;
71856;SDS011;59712;46.980;28.882;2022-08-01T03:39:36;13.48;;;8.73;;
71856;SDS011;59712;46.980;28.882;2022-08-01T03:42:12;23.20;;;11.00;;
71856;SDS011;59712;46.980;28.882;2022-08-01T03:44:48;10.48;;;8.48;;
71856;SDS011;59712;46.980;28.882;2022-08-01T03:47:21;13.40;;;9.55;;
71856;SDS011;59712;46.980;28.882;2022-08-01T03:49:52;12.48;;;9.57;;
71856;SDS011;59712;46.980;28.882;2022-08-01T03:52:23;15.25;;;9.07;;
71856;SDS011;59712;46.980;28.882;2022-08-01T03:54:53;11.93;;;9.63;;
71856;SDS011;59712;46.980;28.882;2022-08-01T03:57:23;13.73;;;10.45;;
71856;SDS011;59712;46.980;28.882;2022-08-01T04:00:03;16.85;;;10.38;;
71856;SDS011;59712;46.980;28.882;2022-08-01T04:02:36;12.73;;;9.90;;
71856;SDS011;59712;46.980;28.882;2022-08-01T04:05:06;12.30;;;9.77;;
71856;SDS011;59712;46.980;28.882;2022-08-01T04:07:34;13.45;;;9.45;;
71856;SDS011;59712;46.980;28.882;2022-08-01T04:10:06;16.00;;;9.88;;
71856;SDS011;59712;46.980;28.882;2022-08-01T04:12:33;12.48;;;9.23;;
71856;SDS011;59712;46.980;28.882;2022-08-01T04:15:01;11.57;;;9.45;;
71856;SDS011;59712;46.980;28.882;2022-08-01T04:17:30;13.43;;;9.43;;
71856;SDS011;59712;46.980;28.882;2022-08-01T04:19:58;12.73;;;9.55;;
71856;SDS011;59712;46.980;28.882;2022-08-01T04:22:25;11.85;;;8.93;;
71856;SDS011;59712;46.980;28.882;2022-08-01T04:24:55;11.30;;;8.60;;
71856;SDS011;59712;46.980;28.882;2022-08-01T04:27:26;10.95;;;8.15;;
71856;SDS011;59712;46.980;28.882;2022-08-01T04:30:22;10.77;;;8.85;;
71856;SDS011;59712;46.980;28.882;2022-08-01T04:32:54;9.93;;;8.10;;
71856;SDS011;59712;46.980;28.882;2022-08-01T04:35:24;9.13;;;8.05;;
71856;SDS011;59712;46.980;28.882;2022-08-01T04:38:20;9.23;;;7.97;;
71856;SDS011;59712;46.980;28.882;2022-08-01T04:40:56;9.73;;;7.82;;
71856;SDS011;59712;46.980;28.882;2022-08-01T04:43:34;9.18;;;7.70;;
71856;SDS011;59712;46.980;28.882;2022-08-01T04:46:10;10.23;;;7.32;;
71856;SDS011;59712;46.980;28.882;2022-08-01T04:48:42;11.40;;;7.43;;
71856;SDS011;59712;46.980;28.882;2022-08-01T04:51:12;9.45;;;7.13;;
71856;SDS011;59712;46.980;28.882;2022-08-01T04:54:13;7.85;;;6.50;;
71856;SDS011;59712;46.980;28.882;2022-08-01T04:56:40;11.00;;;7.30;;
71856;SDS011;59712;46.980;28.882;2022-08-01T05:00:09;9.63;;;7.55;;
71856;SDS011;59712;46.980;28.882;2022-08-01T05:03:03;8.90;;;7.30;;
71856;SDS011;59712;46.980;28.882;2022-08-01T05:05:36;8.88;;;7.63;;
71856;SDS011;59712;46.980;28.882;2022-08-01T05:08:07;12.00;;;7.50;;
71856;SDS011;59712;46.980;28.882;2022-08-01T05:13:24;9.25;;;6.18;;
71856;SDS011;59712;46.980;28.882;2022-08-01T05:16:06;9.55;;;6.47;;
71856;SDS011;59712;46.980;28.882;2022-08-01T05:19:02;8.85;;;6.07;;
71856;SDS011;59712;46.980;28.882;2022-08-01T05:25:55;8.73;;;5.35;;
71856;SDS011;59712;46.980;28.882;2022-08-01T05:28:50;6.47;;;5.85;;
71856;SDS011;59712;46.980;28.882;2022-08-01T05:35:20;6.50;;;5.43;;
71856;SDS011;59712;46.980;28.882;2022-08-01T05:38:18;7.88;;;4.90;;
71856;SDS011;59712;46.980;28.882;2022-08-01T05:41:18;5.68;;;5.10;;
71856;SDS011;59712;46.980;28.882;2022-08-01T05:44:18;5.57;;;4.72;;
71856;SDS011;59712;46.980;28.882;2022-08-01T05:51:44;6.22;;;4.85;;
71856;SDS011;59712;46.980;28.882;2022-08-01T05:55:03;6.53;;;5.07;;
71856;SDS011;59712;46.980;28.882;2022-08-01T05:57:57;8.45;;;4.40;;
71856;SDS011;59712;46.980;28.882;2022-08-01T06:01:02;6.03;;;4.00;;
71856;SDS011;59712;46.980;28.882;2022-08-01T06:04:37;5.20;;;3.78;;
71856;SDS011;59712;46.980;28.882;2022-08-01T06:12:21;9.35;;;4.75;;
71856;SDS011;59712;46.980;28.882;2022-08-01T06:20:18;5.20;;;3.53;;
71856;SDS011;59712;46.980;28.882;2022-08-01T06:23:37;4.35;;;3.40;;
71856;SDS011;59712;46.980;28.882;2022-08-01T06:30:19;5.15;;;2.53;;
71856;SDS011;59712;46.980;28.882;2022-08-01T06:33:41;8.25;;;3.22;;
71856;SDS011;59712;46.980;28.882;2022-08-01T06:37:06;5.68;;;3.38;;
71856;SDS011;59712;46.980;28.882;2022-08-01T06:39:51;7.85;;;3.97;;
71856;SDS011;59712;46.980;28.882;2022-08-01T06:42:27;9.35;;;4.00;;
71856;SDS011;59712;46.980;28.882;2022-08-01T06:45:17;7.18;;;3.20;;
71856;SDS011;59712;46.980;28.882;2022-08-01T06:52:19;6.65;;;4.40;;
71856;SDS011;59712;46.980;28.882;2022-08-01T06:55:44;5.68;;;3.60;;
71856;SDS011;59712;46.980;28.882;2022-08-01T06:59:04;5.22;;;3.67;;
71856;SDS011;59712;46.980;28.882;2022-08-01T07:03:16;6.28;;;3.75;;
71856;SDS011;59712;46.980;28.882;2022-08-01T07:07:15;3.80;;;2.97;;
71856;SDS011;59712;46.980;28.882;2022-08-01T07:11:08;4.10;;;3.50;;
71856;SDS011;59712;46.980;28.882;2022-08-01T07:18:42;5.55;;;4.03;;
71856;SDS011;59712;46.980;28.882;2022-08-01T07:22:09;4.25;;;3.50;;
71856;SDS011;59712;46.980;28.882;2022-08-01T07:29:15;5.13;;;3.08;;
71856;SDS011;59712;46.980;28.882;2022-08-01T07:32:21;4.55;;;3.00;;
71856;SDS011;59712;46.980;28.882;2022-08-01T07:48:53;5.07;;;3.03;;
71856;SDS011;59712;46.980;28.882;2022-08-01T07:52:02;4.68;;;2.90;;
71856;SDS011;59712;46.980;28.882;2022-08-01T07:55:09;4.03;;;2.72;;
71856;SDS011;59712;46.980;28.882;2022-08-01T08:03:08;5.35;;;3.33;;
71856;SDS011;59712;46.980;28.882;2022-08-01T08:06:46;3.67;;;3.17;;
71856;SDS011;59712;46.980;28.882;2022-08-01T08:24:13;5.63;;;3.17;;
71856;SDS011;59712;46.980;28.882;2022-08-01T08:28:38;6.20;;;3.60;;
71856;SDS011;59712;46.980;28.882;2022-08-01T08:32:53;5.13;;;3.40;;
71856;SDS011;59712;46.980;28.882;2022-08-01T08:52:23;5.22;;;2.33;;
71856;SDS011;59712;46.980;28.882;2022-08-01T08:55:21;4.85;;;3.45;;
71856;SDS011;59712;46.980;28.882;2022-08-01T08:59:38;6.20;;;3.75;;
71856;SDS011;59712;46.980;28.882;2022-08-01T09:08:07;4.07;;;2.50;;
71856;SDS011;59712;46.980;28.882;2022-08-01T09:11:15;4.25;;;3.85;;
71856;SDS011;59712;46.980;28.882;2022-08-01T09:14:21;4.30;;;3.60;;
71856;SDS011;59712;46.980;28.882;2022-08-01T09:22:32;5.57;;;3.45;;
71856;SDS011;59712;46.980;28.882;2022-08-01T09:25:14;3.65;;;3.03;;
71856;SDS011;59712;46.980;28.882;2022-08-01T09:28:12;4.72;;;3.67;;
71856;SDS011;59712;46.980;28.882;2022-08-01T09:31:07;3.53;;;2.70;;
71856;SDS011;59712;46.980;28.882;2022-08-01T09:40:14;4.00;;;3.60;;
71856;SDS011;59712;46.980;28.882;2022-08-01T09:42:44;4.95;;;4.20;;
71856;SDS011;59712;46.980;28.882;2022-08-01T09:48:59;4.00;;;3.70;;
71856;SDS011;59712;46.980;28.882;2022-08-01T09:51:37;3.65;;;3.35;;
71856;SDS011;59712;46.980;28.882;2022-08-01T09:54:32;4.05;;;3.45;;
71856;SDS011;59712;46.980;28.882;2022-08-01T09:59:45;5.05;;;3.40;;
71856;SDS011;59712;46.980;28.882;2022-08-01T10:02:30;5.53;;;3.47;;
71856;SDS011;59712;46.980;28.882;2022-08-01T10:05:07;4.60;;;2.80;;
71856;SDS011;59712;46.980;28.882;2022-08-01T10:07:57;2.58;;;2.38;;
71856;SDS011;59712;46.980;28.882;2022-08-01T10:10:33;3.55;;;2.53;;
71856;SDS011;59712;46.980;28.882;2022-08-01T10:13:03;3.50;;;2.80;;
71856;SDS011;59712;46.980;28.882;2022-08-01T10:15:35;5.15;;;2.83;;
71856;SDS011;59712;46.980;28.882;2022-08-01T10:18:07;3.38;;;2.85;;
71856;SDS011;59712;46.980;28.882;2022-08-01T10:20:53;10.13;;;3.80;;
71856;SDS011;59712;46.980;28.882;2022-08-01T10:23:26;3.30;;;2.58;;
71856;SDS011;59712;46.980;28.882;2022-08-01T10:26:10;4.95;;;3.13;;
71856;SDS011;59712;46.980;28.882;2022-08-01T10:28:42;9.00;;;3.15;;
71856;SDS011;59712;46.980;28.882;2022-08-01T10:31:11;4.75;;;3.03;;
71856;SDS011;59712;46.980;28.882;2022-08-01T10:33:40;4.20;;;2.95;;
71856;SDS011;59712;46.980;28.882;2022-08-01T10:36:19;3.10;;;2.80;;
71856;SDS011;59712;46.980;28.882;2022-08-01T10:38:57;3.80;;;3.17;;
71856;SDS011;59712;46.980;28.882;2022-08-01T10:41:27;3.72;;;2.33;;
71856;SDS011;59712;46.980;28.882;2022-08-01T10:44:00;3.10;;;2.80;;
71856;SDS011;59712;46.980;28.882;2022-08-01T10:46:30;3.85;;;2.70;;
71856;SDS011;59712;46.980;28.882;2022-08-01T10:49:03;3.50;;;2.90;;
71856;SDS011;59712;46.980;28.882;2022-08-01T10:51:44;2.97;;;2.35;;
71856;SDS011;59712;46.980;28.882;2022-08-01T10:54:39;5.05;;;2.67;;
71856;SDS011;59712;46.980;28.882;2022-08-01T10:57:18;5.97;;;2.40;;
71856;SDS011;59712;46.980;28.882;2022-08-01T10:59:53;5.43;;;2.80;;
71856;SDS011;59712;46.980;28.882;2022-08-01T11:02:31;5.78;;;2.92;;
71856;SDS011;59712;46.980;28.882;2022-08-01T11:05:12;3.60;;;2.80;;
71856;SDS011;59712;46.980;28.882;2022-08-01T11:07:53;4.55;;;2.65;;
71856;SDS011;59712;46.980;28.882;2022-08-01T11:10:31;2.70;;;2.45;;
71856;SDS011;59712;46.980;28.882;2022-08-01T11:13:06;2.80;;;2.50;;
71856;SDS011;59712;46.980;28.882;2022-08-01T11:15:43;2.65;;;2.22;;
71856;SDS011;59712;46.980;28.882;2022-08-01T11:23:56;2.20;;;2.00;;
71856;SDS011;59712;46.980;28.882;2022-08-01T11:26:30;2.75;;;2.25;;
71856;SDS011;59712;46.980;28.882;2022-08-01T11:29:10;2.83;;;2.42;;
71856;SDS011;59712;46.980;28.882;2022-08-01T11:31:46;3.92;;;2.20;;
71856;SDS011;59712;46.980;28.882;2022-08-01T11:34:16;4.03;;;2.30;;
71856;SDS011;59712;46.980;28.882;2022-08-01T11:36:47;2.50;;;2.05;;
71856;SDS011;59712;46.980;28.882;2022-08-01T11:40:03;3.35;;;2.33;;
71856;SDS011;59712;46.980;28.882;2022-08-01T11:42:44;2.40;;;2.08;;
71856;SDS011;59712;46.980;28.882;2022-08-01T11:45:14;3.78;;;2.10;;
71856;SDS011;59712;46.980;28.882;2022-08-01T11:47:47;5.45;;;2.47;;
71856;SDS011;59712;46.980;28.882;2022-08-01T11:52:59;2.80;;;2.40;;
71856;SDS011;59712;46.980;28.882;2022-08-01T11:55:28;3.00;;;2.28;;
71856;SDS011;59712;46.980;28.882;2022-08-01T12:00:35;2.47;;;2.03;;
71856;SDS011;59712;46.980;28.882;2022-08-01T12:03:09;2.38;;;2.17;;
71856;SDS011;59712;46.980;28.882;2022-08-01T12:06:02;3.13;;;2.00;;
71856;SDS011;59712;46.980;28.882;2022-08-01T12:08:31;3.05;;;2.55;;
71856;SDS011;59712;46.980;28.882;2022-08-01T12:11:01;4.60;;;2.47;;
71856;SDS011;59712;46.980;28.882;2022-08-01T12:13:40;4.15;;;2.58;;
71856;SDS011;59712;46.980;28.882;2022-08-01T12:16:15;2.85;;;2.58;;
71856;SDS011;59712;46.980;28.882;2022-08-01T12:18:44;3.55;;;2.88;;
71856;SDS011;59712;46.980;28.882;2022-08-01T12:21:11;5.22;;;3.75;;
71856;SDS011;59712;46.980;28.882;2022-08-01T12:23:38;1.92;;;1.63;;
71856;SDS011;59712;46.980;28.882;2022-08-01T12:26:07;4.22;;;2.40;;
71856;SDS011;59712;46.980;28.882;2022-08-01T12:28:54;3.72;;;2.50;;
71856;SDS011;59712;46.980;28.882;2022-08-01T12:31:30;3.55;;;2.50;;
71856;SDS011;59712;46.980;28.882;2022-08-01T12:34:24;2.72;;;1.92;;
71856;SDS011;59712;46.980;28.882;2022-08-01T12:36:56;2.28;;;1.60;;
71856;SDS011;59712;46.980;28.882;2022-08-01T12:39:33;4.55;;;2.33;;
71856;SDS011;59712;46.980;28.882;2022-08-01T12:42:06;5.57;;;2.10;;
71856;SDS011;59712;46.980;28.882;2022-08-01T12:44:38;1.85;;;1.48;;
71856;SDS011;59712;46.980;28.882;2022-08-01T12:47:11;3.35;;;2.25;;
71856;SDS011;59712;46.980;28.882;2022-08-01T12:49:41;5.28;;;2.40;;
71856;SDS011;59712;46.980;28.882;2022-08-01T12:52:11;7.00;;;2.92;;
71856;SDS011;59712;46.980;28.882;2022-08-01T12:57:36;5.13;;;2.75;;
71856;SDS011;59712;46.980;28.882;2022-08-01T13:03:08;3.95;;;2.80;;
71856;SDS011;59712;46.980;28.882;2022-08-01T13:05:54;6.03;;;3.50;;
71856;SDS011;59712;46.980;28.882;2022-08-01T13:08:24;5.45;;;3.13;;
71856;SDS011;59712;46.980;28.882;2022-08-01T13:11:02;4.68;;;2.70;;
71856;SDS011;59712;46.980;28.882;2022-08-01T13:13:37;5.25;;;3.50;;
71856;SDS011;59712;46.980;28.882;2022-08-01T13:16:07;6.60;;;4.30;;
71856;SDS011;59712;46.980;28.882;2022-08-01T13:18:49;5.13;;;3.45;;
71856;SDS011;59712;46.980;28.882;2022-08-01T13:26:47;5.72;;;3.75;;
71856;SDS011;59712;46.980;28.882;2022-08-01T13:29:20;6.32;;;3.67;;
71856;SDS011;59712;46.980;28.882;2022-08-01T13:31:54;4.32;;;3.22;;
71856;SDS011;59712;46.980;28.882;2022-08-01T13:34:32;7.47;;;3.17;;
71856;SDS011;59712;46.980;28.882;2022-08-01T13:37:01;6.63;;;2.88;;
71856;SDS011;59712;46.980;28.882;2022-08-01T13:39:29;8.35;;;3.20;;
71856;SDS011;59712;46.980;28.882;2022-08-01T13:42:13;9.13;;;2.83;;
71856;SDS011;59712;46.980;28.882;2022-08-01T13:44:45;5.38;;;2.88;;
71856;SDS011;59712;46.980;28.882;2022-08-01T13:47:12;11.38;;;3.75;;
71856;SDS011;59712;46.980;28.882;2022-08-01T13:49:41;13.55;;;3.90;;
71856;SDS011;59712;46.980;28.882;2022-08-01T13:52:09;8.65;;;4.10;;
71856;SDS011;59712;46.980;28.882;2022-08-01T13:54:36;12.05;;;4.68;;
71856;SDS011;59712;46.980;28.882;2022-08-01T13:57:04;22.05;;;5.50;;
71856;SDS011;59712;46.980;28.882;2022-08-01T13:59:31;15.10;;;6.70;;
71856;SDS011;59712;46.980;28.882;2022-08-01T14:02:03;9.18;;;4.95;;
71856;SDS011;59712;46.980;28.882;2022-08-01T14:04:36;8.90;;;4.50;;
71856;SDS011;59712;46.980;28.882;2022-08-01T14:07:03;5.75;;;2.65;;
71856;SDS011;59712;46.980;28.882;2022-08-01T14:09:38;4.80;;;2.40;;
71856;SDS011;59712;46.980;28.882;2022-08-01T14:12:25;2.67;;;1.70;;
71856;SDS011;59712;46.980;28.882;2022-08-01T14:14:54;3.30;;;1.50;;
71856;SDS011;59712;46.980;28.882;2022-08-01T14:17:23;3.15;;;1.80;;
71856;SDS011;59712;46.980;28.882;2022-08-01T14:19:53;9.77;;;3.03;;
71856;SDS011;59712;46.980;28.882;2022-08-01T14:22:26;11.00;;;3.25;;
71856;SDS011;59712;46.980;28.882;2022-08-01T14:24:53;6.68;;;3.05;;
71856;SDS011;59712;46.980;28.882;2022-08-01T14:27:29;7.10;;;3.92;;
71856;SDS011;59712;46.980;28.882;2022-08-01T14:29:58;10.65;;;3.95;;
71856;SDS011;59712;46.980;28.882;2022-08-01T14:32:30;7.13;;;3.95;;
71856;SDS011;59712;46.980;28.882;2022-08-01T14:34:57;8.18;;;4.00;;
71856;SDS011;59712;46.980;28.882;2022-08-01T14:37:24;10.20;;;4.60;;
71856;SDS011;59712;46.980;28.882;2022-08-01T14:39:57;18.30;;;5.00;;
71856;SDS011;59712;46.980;28.882;2022-08-01T14:42:24;9.20;;;4.57;;
71856;SDS011;59712;46.980;28.882;2022-08-01T14:44:53;11.93;;;4.90;;
71856;SDS011;59712;46.980;28.882;2022-08-01T14:47:20;8.82;;;4.72;;
71856;SDS011;59712;46.980;28.882;2022-08-01T14:49:48;12.50;;;6.40;;
71856;SDS011;59712;46.980;28.882;2022-08-01T14:52:17;6.28;;;3.20;;
71856;SDS011;59712;46.980;28.882;2022-08-01T14:54:45;8.90;;;3.88;;
71856;SDS011;59712;46.980;28.882;2022-08-01T14:57:12;7.57;;;4.22;;
71856;SDS011;59712;46.980;28.882;2022-08-01T14:59:45;10.32;;;4.55;;
71856;SDS011;59712;46.980;28.882;2022-08-01T15:02:13;5.60;;;3.50;;
71856;SDS011;59712;46.980;28.882;2022-08-01T15:04:44;9.77;;;4.40;;
71856;SDS011;59712;46.980;28.882;2022-08-01T15:07:15;8.35;;;4.18;;
71856;SDS011;59712;46.980;28.882;2022-08-01T15:09:45;7.50;;;3.25;;
71856;SDS011;59712;46.980;28.882;2022-08-01T15:12:12;6.57;;;3.90;;
71856;SDS011;59712;46.980;28.882;2022-08-01T15:17:21;7.97;;;3.42;;
71856;SDS011;59712;46.980;28.882;2022-08-01T15:20:03;9.68;;;4.50;;
71856;SDS011;59712;46.980;28.882;2022-08-01T15:22:32;10.40;;;4.90;;
71856;SDS011;59712;46.980;28.882;2022-08-01T15:24:59;13.65;;;5.35;;
71856;SDS011;59712;46.980;28.882;2022-08-01T15:27:30;14.10;;;6.70;;
71856;SDS011;59712;46.980;28.882;2022-08-01T15:29:57;12.80;;;6.55;;
71856;SDS011;59712;46.980;28.882;2022-08-01T15:32:25;15.88;;;5.82;;
71856;SDS011;59712;46.980;28.882;2022-08-01T15:34:53;9.90;;;4.45;;
71856;SDS011;59712;46.980;28.882;2022-08-01T15:37:20;8.45;;;4.43;;
71856;SDS011;59712;46.980;28.882;2022-08-01T15:39:48;8.52;;;4.93;;
71856;SDS011;59712;46.980;28.882;2022-08-01T15:42:20;11.23;;;5.47;;
71856;SDS011;59712;46.980;28.882;2022-08-01T15:44:52;13.88;;;6.00;;
71856;SDS011;59712;46.980;28.882;2022-08-01T15:47:21;14.82;;;7.15;;
71856;SDS011;59712;46.980;28.882;2022-08-01T15:49:56;14.50;;;7.45;;
71856;SDS011;59712;46.980;28.882;2022-08-01T15:52:26;13.45;;;7.65;;
71856;SDS011;59712;46.980;28.882;2022-08-01T15:55:00;25.15;;;10.38;;
71856;SDS011;59712;46.980;28.882;2022-08-01T15:57:29;14.82;;;8.40;;
71856;SDS011;59712;46.980;28.882;2022-08-01T15:59:58;18.85;;;9.13;;
71856;SDS011;59712;46.980;28.882;2022-08-01T16:02:25;23.38;;;8.77;;
71856;SDS011;59712;46.980;28.882;2022-08-01T16:04:52;17.50;;;8.05;;
71856;SDS011;59712;46.980;28.882;2022-08-01T16:07:22;17.85;;;8.25;;
71856;SDS011;59712;46.980;28.882;2022-08-01T16:09:58;16.23;;;8.70;;
71856;SDS011;59712;46.980;28.882;2022-08-01T16:12:25;20.42;;;8.80;;
71856;SDS011;59712;46.980;28.882;2022-08-01T16:14:55;17.90;;;10.90;;
71856;SDS011;59712;46.980;28.882;2022-08-01T16:17:24;18.02;;;9.93;;
71856;SDS011;59712;46.980;28.882;2022-08-01T16:19:53;18.00;;;10.23;;
71856;SDS011;59712;46.980;28.882;2022-08-01T16:22:22;18.38;;;11.05;;
71856;SDS011;59712;46.980;28.882;2022-08-01T16:24:54;17.13;;;10.57;;
71856;SDS011;59712;46.980;28.882;2022-08-01T16:27:26;23.27;;;13.13;;
71856;SDS011;59712;46.980;28.882;2022-08-01T16:29:56;19.38;;;10.77;;
71856;SDS011;59712;46.980;28.882;2022-08-01T16:32:23;28.55;;;11.82;;
71856;SDS011;59712;46.980;28.882;2022-08-01T16:35:10;15.15;;;9.15;;
71856;SDS011;59712;46.980;28.882;2022-08-01T16:37:38;16.17;;;9.75;;
71856;SDS011;59712;46.980;28.882;2022-08-01T16:40:06;14.25;;;8.60;;
71856;SDS011;59712;46.980;28.882;2022-08-01T16:42:33;18.23;;;9.68;;
71856;SDS011;59712;46.980;28.882;2022-08-01T16:45:00;17.30;;;8.70;;
71856;SDS011;59712;46.980;28.882;2022-08-01T16:47:40;14.32;;;7.68;;
71856;SDS011;59712;46.980;28.882;2022-08-01T16:50:07;12.82;;;7.47;;
71856;SDS011;59712;46.980;28.882;2022-08-01T16:52:37;12.75;;;7.50;;
71856;SDS011;59712;46.980;28.882;2022-08-01T16:55:08;11.43;;;6.13;;
71856;SDS011;59712;46.980;28.882;2022-08-01T16:57:35;9.48;;;6.65;;
71856;SDS011;59712;46.980;28.882;2022-08-01T17:00:05;8.55;;;5.28;;
71856;SDS011;59712;46.980;28.882;2022-08-01T17:02:47;11.43;;;5.90;;
71856;SDS011;59712;46.980;28.882;2022-08-01T17:05:14;13.10;;;5.68;;
71856;SDS011;59712;46.980;28.882;2022-08-01T17:07:44;12.68;;;5.85;;
71856;SDS011;59712;46.980;28.882;2022-08-01T17:10:12;8.25;;;5.18;;
71856;SDS011;59712;46.980;28.882;2022-08-01T17:12:41;6.25;;;5.03;;
71856;SDS011;59712;46.980;28.882;2022-08-01T17:15:08;7.85;;;5.03;;
71856;SDS011;59712;46.980;28.882;2022-08-01T17:17:37;13.43;;;6.70;;
71856;SDS011;59712;46.980;28.882;2022-08-01T17:20:04;9.30;;;5.55;;
71856;SDS011;59712;46.980;28.882;2022-08-01T17:22:32;10.20;;;5.68;;
71856;SDS011;59712;46.980;28.882;2022-08-01T17:24:59;14.07;;;6.47;;
71856;SDS011;59712;46.980;28.882;2022-08-01T17:27:26;17.17;;;6.63;;
71856;SDS011;59712;46.980;28.882;2022-08-01T17:29:53;13.75;;;7.45;;
71856;SDS011;59712;46.980;28.882;2022-08-01T17:32:21;15.57;;;9.85;;
71856;SDS011;59712;46.980;28.882;2022-08-01T17:34:51;13.70;;;7.65;;
71856;SDS011;59712;46.980;28.882;2022-08-01T17:37:21;12.68;;;7.63;;
71856;SDS011;59712;46.980;28.882;2022-08-01T17:39:52;16.15;;;7.88;;
71856;SDS011;59712;46.980;28.882;2022-08-01T17:42:19;22.63;;;9.00;;
71856;SDS011;59712;46.980;28.882;2022-08-01T17:44:57;12.07;;;7.88;;
71856;SDS011;59712;46.980;28.882;2022-08-01T17:47:54;13.13;;;6.75;;
71856;SDS011;59712;46.980;28.882;2022-08-01T17:50:23;13.95;;;7.15;;
71856;SDS011;59712;46.980;28.882;2022-08-01T17:52:50;15.45;;;9.43;;
71856;SDS011;59712;46.980;28.882;2022-08-01T17:55:18;16.58;;;9.35;;
71856;SDS011;59712;46.980;28.882;2022-08-01T17:58:05;14.63;;;7.45;;
71856;SDS011;59712;46.980;28.882;2022-08-01T18:00:38;15.75;;;6.55;;
71856;SDS011;59712;46.980;28.882;2022-08-01T18:03:05;16.05;;;7.40;;